sensor_id;sensor_type;location;lat;lon;timestamp;P1;durP1;ratioP1;P2;durP2;ratioP2
1164;SDS011;571;50.930;6.926;2023-08-31T02:45:41;5.23;;;2.90;;
1164;SDS011;571;50.930;6.926;2023-08-31T02:48:08;3.47;;;2.70;;
1164;SDS011;571;50.930;6.926;2023-08-31T02:50:36;3.83;;;3.00;;
1164;SDS011;571;50.930;6.926;2023-08-31T02:53:04;5.73;;;3.27;;
1164;SDS011;571;50.930;6.926;2023-08-31T02:55:32;4.97;;;2.83;;
1164;SDS011;571;50.930;6.926;2023-08-31T02:57:59;3.30;;;2.80;;
1164;SDS011;571;50.930;6.926;2023-08-31T03:00:26;6.77;;;3.27;;
1164;SDS011;571;50.930;6.926;2023-08-31T03:02:55;3.27;;;2.97;;
1164;SDS011;571;50.930;6.926;2023-08-31T03:05:21;3.73;;;3.37;;
1164;SDS011;571;50.930;6.926;2023-08-31T03:07:48;3.50;;;2.70;;
1164;SDS011;571;50.930;6.926;2023-08-31T03:10:15;4.70;;;3.33;;
1164;SDS011;571;50.930;6.926;2023-08-31T03:12:42;2.90;;;2.60;;
1164;SDS011;571;50.930;6.926;2023-08-31T03:15:08;2.93;;;2.43;;
1164;SDS011;571;50.930;6.926;2023-08-31T03:17:35;2.87;;;2.57;;
1164;SDS011;571;50.930;6.926;2023-08-31T03:20:04;5.03;;;2.80;;
1164;SDS011;571;50.930;6.926;2023-08-31T03:22:32;3.00;;;2.80;;
1164;SDS011;571;50.930;6.926;2023-08-31T03:24:59;3.60;;;2.10;;
1164;SDS011;571;50.930;6.926;2023-08-31T03:27:25;4.43;;;3.13;;
1164;SDS011;571;50.930;6.926;2023-08-31T03:29:52;5.53;;;2.97;;
1164;SDS011;571;50.930;6.926;2023-08-31T03:32:19;4.23;;;3.00;;
1164;SDS011;571;50.930;6.926;2023-08-31T03:34:46;4.33;;;2.70;;
1164;SDS011;571;50.930;6.926;2023-08-31T03:37:14;4.20;;;3.57;;
1164;SDS011;571;50.930;6.926;2023-08-31T03:39:40;4.20;;;2.73;;
1164;SDS011;571;50.930;6.926;2023-08-31T03:42:08;3.40;;;3.10;;
1164;SDS011;571;50.930;6.926;2023-08-31T03:44:34;4.07;;;3.67;;
1164;SDS011;571;50.930;6.926;2023-08-31T03:47:02;4.03;;;3.00;;
1164;SDS011;571;50.930;6.926;2023-08-31T03:49:29;6.53;;;3.70;;
1164;SDS011;571;50.930;6.926;2023-08-31T03:51:56;2.40;;;2.20;;
1164;SDS011;571;50.930;6.926;2023-08-31T03:54:25;5.47;;;3.53;;
1164;SDS011;571;50.930;6.926;2023-08-31T03:56:51;3.83;;;3.27;;
1164;SDS011;571;50.930;6.926;2023-08-31T03:59:18;3.63;;;3.33;;
1164;SDS011;571;50.930;6.926;2023-08-31T04:01:45;4.30;;;3.07;;
1164;SDS011;571;50.930;6.926;2023-08-31T04:04:12;3.67;;;2.77;;
1164;SDS011;571;50.930;6.926;2023-08-31T04:06:38;4.63;;;2.80;;
1164;SDS011;571;50.930;6.926;2023-08-31T04:09:05;6.70;;;3.17;;
1164;SDS011;571;50.930;6.926;2023-08-31T04:11:33;5.50;;;3.30;;
1164;SDS011;571;50.930;6.926;2023-08-31T04:14:00;5.37;;;3.70;;
1164;SDS011;571;50.930;6.926;2023-08-31T04:16:27;3.47;;;3.03;;
1164;SDS011;571;50.930;6.926;2023-08-31T04:18:54;3.70;;;3.30;;
1164;SDS011;571;50.930;6.926;2023-08-31T04:21:21;4.50;;;3.63;;
1164;SDS011;571;50.930;6.926;2023-08-31T04:23:48;3.40;;;2.50;;
1164;SDS011;571;50.930;6.926;2023-08-31T04:26:14;4.43;;;3.40;;
1164;SDS011;571;50.930;6.926;2023-08-31T04:28:43;4.30;;;2.73;;
1164;SDS011;571;50.930;6.926;2023-08-31T04:31:10;5.73;;;3.40;;
1164;SDS011;571;50.930;6.926;2023-08-31T04:33:37;4.07;;;2.80;;
1164;SDS011;571;50.930;6.926;2023-08-31T04:36:04;3.10;;;2.80;;
1164;SDS011;571;50.930;6.926;2023-08-31T04:38:31;6.43;;;3.40;;
1164;SDS011;571;50.930;6.926;2023-08-31T04:40:58;3.27;;;2.97;;
1164;SDS011;571;50.930;6.926;2023-08-31T04:43:25;4.00;;;3.33;;
1164;SDS011;571;50.930;6.926;2023-08-31T04:45:54;2.87;;;2.60;;
1164;SDS011;571;50.930;6.926;2023-08-31T04:48:20;4.50;;;3.23;;
1164;SDS011;571;50.930;6.926;2023-08-31T04:50:47;3.43;;;3.20;;
1164;SDS011;571;50.930;6.926;2023-08-31T04:53:14;13.03;;;3.40;;
1164;SDS011;571;50.930;6.926;2023-08-31T04:55:41;4.13;;;3.17;;
1164;SDS011;571;50.930;6.926;2023-08-31T04:58:08;8.90;;;3.47;;
1164;SDS011;571;50.930;6.926;2023-08-31T05:00:34;3.20;;;2.90;;
1164;SDS011;571;50.930;6.926;2023-08-31T05:03:03;4.97;;;2.40;;
1164;SDS011;571;50.930;6.926;2023-08-31T05:05:30;4.70;;;3.50;;
1164;SDS011;571;50.930;6.926;2023-08-31T05:07:56;5.30;;;2.67;;
1164;SDS011;571;50.930;6.926;2023-08-31T05:10:24;4.37;;;3.60;;
1164;SDS011;571;50.930;6.926;2023-08-31T05:12:50;4.40;;;4.00;;
1164;SDS011;571;50.930;6.926;2023-08-31T05:15:17;4.30;;;3.77;;
1164;SDS011;571;50.930;6.926;2023-08-31T05:17:44;8.73;;;3.53;;
1164;SDS011;571;50.930;6.926;2023-08-31T05:20:12;6.97;;;3.40;;
1164;SDS011;571;50.930;6.926;2023-08-31T05:22:38;7.30;;;3.63;;
1164;SDS011;571;50.930;6.926;2023-08-31T05:25:05;4.10;;;3.43;;
1164;SDS011;571;50.930;6.926;2023-08-31T05:27:33;4.70;;;3.70;;
1164;SDS011;571;50.930;6.926;2023-08-31T05:29:59;6.83;;;4.13;;
1164;SDS011;571;50.930;6.926;2023-08-31T05:32:27;5.57;;;3.30;;
1164;SDS011;571;50.930;6.926;2023-08-31T05:34:54;4.77;;;3.47;;
1164;SDS011;571;50.930;6.926;2023-08-31T05:37:22;4.23;;;2.47;;
1164;SDS011;571;50.930;6.926;2023-08-31T05:39:49;4.80;;;3.30;;
1164;SDS011;571;50.930;6.926;2023-08-31T05:42:16;5.67;;;3.30;;
1164;SDS011;571;50.930;6.926;2023-08-31T05:44:43;3.90;;;3.20;;
1164;SDS011;571;50.930;6.926;2023-08-31T05:47:10;6.67;;;4.00;;
1164;SDS011;571;50.930;6.926;2023-08-31T05:49:37;3.60;;;3.13;;
1164;SDS011;571;50.930;6.926;2023-08-31T05:52:04;6.33;;;4.00;;
1164;SDS011;571;50.930;6.926;2023-08-31T05:54:32;4.27;;;3.67;;
1164;SDS011;571;50.930;6.926;2023-08-31T05:56:59;6.10;;;3.80;;
1164;SDS011;571;50.930;6.926;2023-08-31T05:59:28;8.03;;;4.53;;
1164;SDS011;571;50.930;6.926;2023-08-31T06:01:55;4.07;;;3.53;;
1164;SDS011;571;50.930;6.926;2023-08-31T06:04:21;4.33;;;3.80;;
1164;SDS011;571;50.930;6.926;2023-08-31T06:06:48;7.83;;;6.20;;
1164;SDS011;571;50.930;6.926;2023-08-31T06:09:18;4.37;;;3.13;;
1164;SDS011;571;50.930;6.926;2023-08-31T06:11:46;3.97;;;3.30;;
1164;SDS011;571;50.930;6.926;2023-08-31T06:14:13;3.80;;;3.20;;
1164;SDS011;571;50.930;6.926;2023-08-31T06:16:40;7.43;;;2.97;;
1164;SDS011;571;50.930;6.926;2023-08-31T06:19:06;3.80;;;3.17;;
1164;SDS011;571;50.930;6.926;2023-08-31T06:21:33;5.80;;;3.13;;
1164;SDS011;571;50.930;6.926;2023-08-31T06:24:00;4.60;;;2.90;;
1164;SDS011;571;50.930;6.926;2023-08-31T06:26:27;4.93;;;3.27;;
1164;SDS011;571;50.930;6.926;2023-08-31T06:28:55;5.63;;;3.10;;
1164;SDS011;571;50.930;6.926;2023-08-31T06:31:22;6.40;;;3.73;;
1164;SDS011;571;50.930;6.926;2023-08-31T06:33:49;4.90;;;3.20;;
1164;SDS011;571;50.930;6.926;2023-08-31T06:36:15;6.13;;;3.40;;
1164;SDS011;571;50.930;6.926;2023-08-31T06:38:42;5.00;;;3.33;;
1164;SDS011;571;50.930;6.926;2023-08-31T06:41:09;6.00;;;3.60;;
1164;SDS011;571;50.930;6.926;2023-08-31T06:43:36;4.37;;;3.30;;
1164;SDS011;571;50.930;6.926;2023-08-31T06:46:04;12.73;;;3.80;;
1164;SDS011;571;50.930;6.926;2023-08-31T06:48:31;6.17;;;3.67;;
1164;SDS011;571;50.930;6.926;2023-08-31T06:50:57;5.27;;;3.13;;
1164;SDS011;571;50.930;6.926;2023-08-31T06:53:24;7.90;;;3.20;;
1164;SDS011;571;50.930;6.926;2023-08-31T06:55:51;5.83;;;3.80;;
1164;SDS011;571;50.930;6.926;2023-08-31T06:58:17;14.20;;;3.47;;
1164;SDS011;571;50.930;6.926;2023-08-31T07:00:44;7.40;;;3.40;;
1164;SDS011;571;50.930;6.926;2023-08-31T07:03:13;6.73;;;3.43;;
1164;SDS011;571;50.930;6.926;2023-08-31T07:05:41;8.80;;;3.03;;
1164;SDS011;571;50.930;6.926;2023-08-31T07:08:09;6.50;;;3.57;;
1164;SDS011;571;50.930;6.926;2023-08-31T07:10:35;11.47;;;2.70;;
1164;SDS011;571;50.930;6.926;2023-08-31T07:13:02;5.80;;;2.67;;
1164;SDS011;571;50.930;6.926;2023-08-31T07:15:29;7.70;;;4.30;;
1164;SDS011;571;50.930;6.926;2023-08-31T07:17:56;7.10;;;3.97;;
1164;SDS011;571;50.930;6.926;2023-08-31T07:20:24;4.53;;;3.20;;
1164;SDS011;571;50.930;6.926;2023-08-31T07:22:51;5.43;;;3.27;;
1164;SDS011;571;50.930;6.926;2023-08-31T07:25:18;4.37;;;3.10;;
1164;SDS011;571;50.930;6.926;2023-08-31T07:27:44;5.13;;;3.10;;
1164;SDS011;571;50.930;6.926;2023-08-31T07:30:11;5.87;;;2.77;;
1164;SDS011;571;50.930;6.926;2023-08-31T07:32:38;4.37;;;2.60;;
1164;SDS011;571;50.930;6.926;2023-08-31T07:35:05;3.93;;;2.63;;
1164;SDS011;571;50.930;6.926;2023-08-31T07:37:33;6.07;;;2.53;;
1164;SDS011;571;50.930;6.926;2023-08-31T07:40:02;7.33;;;2.70;;
1164;SDS011;571;50.930;6.926;2023-08-31T07:42:33;6.70;;;3.43;;
1164;SDS011;571;50.930;6.926;2023-08-31T07:45:00;3.30;;;2.30;;
1164;SDS011;571;50.930;6.926;2023-08-31T07:47:26;3.77;;;2.80;;
1164;SDS011;571;50.930;6.926;2023-08-31T07:49:53;5.10;;;2.50;;
1164;SDS011;571;50.930;6.926;2023-08-31T07:52:20;10.03;;;2.27;;
1164;SDS011;571;50.930;6.926;2023-08-31T07:54:48;3.33;;;2.13;;
1164;SDS011;571;50.930;6.926;2023-08-31T07:57:15;5.00;;;2.80;;
1164;SDS011;571;50.930;6.926;2023-08-31T07:59:42;5.73;;;2.50;;
1164;SDS011;571;50.930;6.926;2023-08-31T08:02:08;5.40;;;2.20;;
1164;SDS011;571;50.930;6.926;2023-08-31T08:04:35;2.97;;;2.67;;
1164;SDS011;571;50.930;6.926;2023-08-31T08:07:02;5.20;;;2.00;;
1164;SDS011;571;50.930;6.926;2023-08-31T08:09:29;4.40;;;2.40;;
1164;SDS011;571;50.930;6.926;2023-08-31T08:11:57;3.73;;;2.10;;
1164;SDS011;571;50.930;6.926;2023-08-31T08:14:24;5.50;;;2.90;;
1164;SDS011;571;50.930;6.926;2023-08-31T08:16:51;12.90;;;2.47;;
1164;SDS011;571;50.930;6.926;2023-08-31T08:19:20;9.13;;;2.97;;
1164;SDS011;571;50.930;6.926;2023-08-31T08:21:48;3.60;;;2.43;;
1164;SDS011;571;50.930;6.926;2023-08-31T08:24:15;3.50;;;2.37;;
1164;SDS011;571;50.930;6.926;2023-08-31T08:26:41;5.43;;;2.30;;
1164;SDS011;571;50.930;6.926;2023-08-31T08:29:09;4.17;;;2.80;;
1164;SDS011;571;50.930;6.926;2023-08-31T08:31:36;7.03;;;2.73;;
1164;SDS011;571;50.930;6.926;2023-08-31T08:34:03;4.50;;;2.03;;
1164;SDS011;571;50.930;6.926;2023-08-31T08:36:30;2.90;;;1.63;;
1164;SDS011;571;50.930;6.926;2023-08-31T08:38:57;3.23;;;2.00;;
1164;SDS011;571;50.930;6.926;2023-08-31T08:41:24;8.60;;;3.10;;
1164;SDS011;571;50.930;6.926;2023-08-31T08:43:51;3.00;;;2.30;;
1164;SDS011;571;50.930;6.926;2023-08-31T08:46:19;5.00;;;2.97;;
1164;SDS011;571;50.930;6.926;2023-08-31T08:48:46;3.57;;;2.50;;
1164;SDS011;571;50.930;6.926;2023-08-31T08:51:13;5.07;;;2.60;;
1164;SDS011;571;50.930;6.926;2023-08-31T08:53:40;3.20;;;1.73;;
1164;SDS011;571;50.930;6.926;2023-08-31T08:56:09;5.03;;;2.63;;
1164;SDS011;571;50.930;6.926;2023-08-31T08:58:36;2.33;;;1.60;;
1164;SDS011;571;50.930;6.926;2023-08-31T09:01:02;5.30;;;2.13;;
1164;SDS011;571;50.930;6.926;2023-08-31T09:03:34;3.43;;;2.10;;
1164;SDS011;571;50.930;6.926;2023-08-31T09:06:01;6.43;;;2.07;;
1164;SDS011;571;50.930;6.926;2023-08-31T09:08:28;2.53;;;2.20;;
1164;SDS011;571;50.930;6.926;2023-08-31T09:10:55;5.30;;;1.93;;
1164;SDS011;571;50.930;6.926;2023-08-31T09:13:25;2.53;;;1.97;;
1164;SDS011;571;50.930;6.926;2023-08-31T09:15:54;4.50;;;2.47;;
1164;SDS011;571;50.930;6.926;2023-08-31T09:18:22;4.00;;;2.50;;
1164;SDS011;571;50.930;6.926;2023-08-31T09:20:51;2.20;;;1.93;;
1164;SDS011;571;50.930;6.926;2023-08-31T09:23:19;5.60;;;1.90;;
1164;SDS011;571;50.930;6.926;2023-08-31T09:25:47;6.80;;;1.90;;
1164;SDS011;571;50.930;6.926;2023-08-31T09:28:15;4.53;;;2.33;;
1164;SDS011;571;50.930;6.926;2023-08-31T09:30:43;2.43;;;1.90;;
1164;SDS011;571;50.930;6.926;2023-08-31T09:33:13;4.20;;;2.50;;
1164;SDS011;571;50.930;6.926;2023-08-31T09:35:46;3.40;;;1.90;;
1164;SDS011;571;50.930;6.926;2023-08-31T09:38:17;3.80;;;2.60;;
1164;SDS011;571;50.930;6.926;2023-08-31T09:40:45;4.40;;;2.10;;
1164;SDS011;571;50.930;6.926;2023-08-31T09:43:12;4.80;;;2.80;;
1164;SDS011;571;50.930;6.926;2023-08-31T09:45:45;3.17;;;1.90;;
1164;SDS011;571;50.930;6.926;2023-08-31T09:48:13;2.23;;;1.80;;
1164;SDS011;571;50.930;6.926;2023-08-31T09:50:42;1.70;;;1.60;;
1164;SDS011;571;50.930;6.926;2023-08-31T09:53:10;2.10;;;1.53;;
1164;SDS011;571;50.930;6.926;2023-08-31T09:55:39;2.50;;;1.43;;
1164;SDS011;571;50.930;6.926;2023-08-31T09:58:07;4.53;;;1.83;;
1164;SDS011;571;50.930;6.926;2023-08-31T10:00:36;5.00;;;1.90;;
1164;SDS011;571;50.930;6.926;2023-08-31T10:03:04;1.87;;;1.77;;
1164;SDS011;571;50.930;6.926;2023-08-31T10:05:31;2.03;;;1.50;;
1164;SDS011;571;50.930;6.926;2023-08-31T10:07:58;4.27;;;1.73;;
1164;SDS011;571;50.930;6.926;2023-08-31T10:10:27;10.53;;;1.93;;
1164;SDS011;571;50.930;6.926;2023-08-31T10:12:56;5.03;;;2.10;;
1164;SDS011;571;50.930;6.926;2023-08-31T10:15:26;4.37;;;1.40;;
1164;SDS011;571;50.930;6.926;2023-08-31T10:18:00;1.83;;;1.30;;
1164;SDS011;571;50.930;6.926;2023-08-31T10:20:28;6.23;;;2.10;;
1164;SDS011;571;50.930;6.926;2023-08-31T10:22:56;2.70;;;1.63;;
1164;SDS011;571;50.930;6.926;2023-08-31T10:25:23;1.90;;;1.27;;
1164;SDS011;571;50.930;6.926;2023-08-31T10:27:51;3.60;;;1.60;;
1164;SDS011;571;50.930;6.926;2023-08-31T10:30:25;5.00;;;1.73;;
1164;SDS011;571;50.930;6.926;2023-08-31T10:33:05;3.57;;;1.50;;
1164;SDS011;571;50.930;6.926;2023-08-31T10:35:49;4.27;;;1.43;;
1164;SDS011;571;50.930;6.926;2023-08-31T10:38:23;2.07;;;1.30;;
1164;SDS011;571;50.930;6.926;2023-08-31T10:41:01;1.90;;;1.20;;
1164;SDS011;571;50.930;6.926;2023-08-31T10:43:44;1.90;;;1.30;;
1164;SDS011;571;50.930;6.926;2023-08-31T10:46:24;5.40;;;1.60;;
1164;SDS011;571;50.930;6.926;2023-08-31T10:48:52;2.50;;;1.50;;
1164;SDS011;571;50.930;6.926;2023-08-31T10:51:23;3.83;;;1.40;;
1164;SDS011;571;50.930;6.926;2023-08-31T10:53:51;4.33;;;1.53;;
1164;SDS011;571;50.930;6.926;2023-08-31T10:56:18;1.83;;;1.57;;
1164;SDS011;571;50.930;6.926;2023-08-31T10:58:55;3.53;;;1.93;;
1164;SDS011;571;50.930;6.926;2023-08-31T11:04:19;2.67;;;1.50;;
1164;SDS011;571;50.930;6.926;2023-08-31T11:06:46;3.43;;;1.63;;
1164;SDS011;571;50.930;6.926;2023-08-31T11:09:17;3.23;;;1.80;;
1164;SDS011;571;50.930;6.926;2023-08-31T11:11:45;3.17;;;1.80;;
1164;SDS011;571;50.930;6.926;2023-08-31T11:14:11;3.73;;;1.83;;
1164;SDS011;571;50.930;6.926;2023-08-31T11:16:38;5.77;;;1.80;;
1164;SDS011;571;50.930;6.926;2023-08-31T11:19:06;3.20;;;2.37;;
1164;SDS011;571;50.930;6.926;2023-08-31T11:21:33;2.57;;;1.90;;
1164;SDS011;571;50.930;6.926;2023-08-31T11:24:02;3.57;;;1.83;;
1164;SDS011;571;50.930;6.926;2023-08-31T11:26:31;4.80;;;2.07;;
1164;SDS011;571;50.930;6.926;2023-08-31T11:28:58;4.63;;;2.40;;
1164;SDS011;571;50.930;6.926;2023-08-31T11:31:25;3.70;;;1.97;;
1164;SDS011;571;50.930;6.926;2023-08-31T11:33:53;3.93;;;2.40;;
1164;SDS011;571;50.930;6.926;2023-08-31T11:36:22;3.40;;;2.33;;
1164;SDS011;571;50.930;6.926;2023-08-31T11:38:51;4.50;;;2.10;;
1164;SDS011;571;50.930;6.926;2023-08-31T11:41:18;5.93;;;1.93;;
1164;SDS011;571;50.930;6.926;2023-08-31T11:43:46;3.07;;;2.33;;
1164;SDS011;571;50.930;6.926;2023-08-31T11:46:14;4.20;;;2.70;;
1164;SDS011;571;50.930;6.926;2023-08-31T11:48:41;3.00;;;2.13;;
1164;SDS011;571;50.930;6.926;2023-08-31T11:51:09;3.90;;;2.30;;
1164;SDS011;571;50.930;6.926;2023-08-31T11:53:38;7.23;;;2.40;;
1164;SDS011;571;50.930;6.926;2023-08-31T11:56:06;3.87;;;1.67;;
1164;SDS011;571;50.930;6.926;2023-08-31T11:58:33;4.93;;;1.90;;
1164;SDS011;571;50.930;6.926;2023-08-31T12:01:07;3.07;;;1.80;;
1164;SDS011;571;50.930;6.926;2023-08-31T12:03:41;3.60;;;1.80;;
1164;SDS011;571;50.930;6.926;2023-08-31T12:06:09;2.70;;;1.50;;
1164;SDS011;571;50.930;6.926;2023-08-31T12:08:37;2.83;;;1.70;;
1164;SDS011;571;50.930;6.926;2023-08-31T12:11:06;5.07;;;2.17;;
1164;SDS011;571;50.930;6.926;2023-08-31T12:13:33;4.00;;;1.50;;
1164;SDS011;571;50.930;6.926;2023-08-31T12:16:00;2.67;;;1.77;;
1164;SDS011;571;50.930;6.926;2023-08-31T12:18:29;5.10;;;1.57;;
1164;SDS011;571;50.930;6.926;2023-08-31T12:20:56;2.50;;;1.70;;
1164;SDS011;571;50.930;6.926;2023-08-31T12:23:24;3.37;;;1.70;;
1164;SDS011;571;50.930;6.926;2023-08-31T12:26:05;3.73;;;2.33;;
1164;SDS011;571;50.930;6.926;2023-08-31T12:28:47;4.20;;;2.10;;
1164;SDS011;571;50.930;6.926;2023-08-31T12:31:20;4.30;;;2.20;;
1164;SDS011;571;50.930;6.926;2023-08-31T12:33:48;6.60;;;3.90;;
1164;SDS011;571;50.930;6.926;2023-08-31T12:36:15;4.70;;;3.00;;
1164;SDS011;571;50.930;6.926;2023-08-31T12:38:42;3.83;;;1.93;;
1164;SDS011;571;50.930;6.926;2023-08-31T12:41:11;6.93;;;2.00;;
1164;SDS011;571;50.930;6.926;2023-08-31T12:43:38;2.73;;;1.53;;
1164;SDS011;571;50.930;6.926;2023-08-31T12:46:05;2.43;;;1.30;;
1164;SDS011;571;50.930;6.926;2023-08-31T12:48:31;5.33;;;1.83;;
1164;SDS011;571;50.930;6.926;2023-08-31T12:50:58;2.10;;;1.63;;
1164;SDS011;571;50.930;6.926;2023-08-31T12:53:25;4.03;;;1.80;;
1164;SDS011;571;50.930;6.926;2023-08-31T12:55:52;3.27;;;1.83;;
1164;SDS011;571;50.930;6.926;2023-08-31T12:58:21;2.87;;;1.97;;
1164;SDS011;571;50.930;6.926;2023-08-31T13:00:47;5.97;;;2.23;;
1164;SDS011;571;50.930;6.926;2023-08-31T13:03:15;3.60;;;2.00;;
1164;SDS011;571;50.930;6.926;2023-08-31T13:05:42;3.60;;;1.97;;
1164;SDS011;571;50.930;6.926;2023-08-31T13:08:09;1.90;;;1.27;;
1164;SDS011;571;50.930;6.926;2023-08-31T13:10:35;3.40;;;1.57;;
1164;SDS011;571;50.930;6.926;2023-08-31T13:13:02;2.70;;;1.60;;
1164;SDS011;571;50.930;6.926;2023-08-31T13:15:32;2.47;;;1.63;;
1164;SDS011;571;50.930;6.926;2023-08-31T13:18:01;3.63;;;2.10;;
1164;SDS011;571;50.930;6.926;2023-08-31T13:20:30;2.97;;;1.90;;
1164;SDS011;571;50.930;6.926;2023-08-31T13:22:57;3.10;;;2.20;;
1164;SDS011;571;50.930;6.926;2023-08-31T13:25:24;5.57;;;2.27;;
1164;SDS011;571;50.930;6.926;2023-08-31T13:27:51;5.63;;;2.77;;
1164;SDS011;571;50.930;6.926;2023-08-31T13:30:19;3.50;;;2.40;;
1164;SDS011;571;50.930;6.926;2023-08-31T13:32:48;3.73;;;2.23;;
1164;SDS011;571;50.930;6.926;2023-08-31T13:35:15;4.47;;;2.13;;
1164;SDS011;571;50.930;6.926;2023-08-31T13:37:42;4.63;;;2.20;;
1164;SDS011;571;50.930;6.926;2023-08-31T13:40:09;3.97;;;2.00;;
1164;SDS011;571;50.930;6.926;2023-08-31T13:42:36;3.83;;;1.80;;
1164;SDS011;571;50.930;6.926;2023-08-31T13:45:04;4.93;;;2.33;;
1164;SDS011;571;50.930;6.926;2023-08-31T13:47:32;9.93;;;2.50;;
1164;SDS011;571;50.930;6.926;2023-08-31T13:50:01;4.00;;;1.97;;
1164;SDS011;571;50.930;6.926;2023-08-31T13:52:29;8.17;;;2.50;;
1164;SDS011;571;50.930;6.926;2023-08-31T13:54:55;5.47;;;2.17;;
1164;SDS011;571;50.930;6.926;2023-08-31T13:57:22;5.20;;;2.53;;
1164;SDS011;571;50.930;6.926;2023-08-31T13:59:49;4.20;;;1.80;;
1164;SDS011;571;50.930;6.926;2023-08-31T14:02:16;3.27;;;2.50;;
1164;SDS011;571;50.930;6.926;2023-08-31T14:04:46;4.90;;;2.20;;
1164;SDS011;571;50.930;6.926;2023-08-31T14:07:17;4.40;;;3.03;;
1164;SDS011;571;50.930;6.926;2023-08-31T14:09:47;7.70;;;2.40;;
1164;SDS011;571;50.930;6.926;2023-08-31T14:12:15;5.33;;;2.10;;
1164;SDS011;571;50.930;6.926;2023-08-31T14:14:42;4.10;;;2.43;;
1164;SDS011;571;50.930;6.926;2023-08-31T14:17:11;3.23;;;2.27;;
1164;SDS011;571;50.930;6.926;2023-08-31T14:19:37;4.17;;;2.10;;
1164;SDS011;571;50.930;6.926;2023-08-31T14:22:04;2.33;;;1.80;;
1164;SDS011;571;50.930;6.926;2023-08-31T14:24:33;2.07;;;1.70;;
1164;SDS011;571;50.930;6.926;2023-08-31T14:26:59;3.80;;;2.40;;
1164;SDS011;571;50.930;6.926;2023-08-31T14:29:26;2.93;;;1.70;;
1164;SDS011;571;50.930;6.926;2023-08-31T14:31:57;4.17;;;2.03;;
1164;SDS011;571;50.930;6.926;2023-08-31T14:34:24;4.90;;;2.10;;
1164;SDS011;571;50.930;6.926;2023-08-31T14:36:52;2.57;;;1.80;;
1164;SDS011;571;50.930;6.926;2023-08-31T14:39:35;8.10;;;1.83;;
1164;SDS011;571;50.930;6.926;2023-08-31T14:42:33;5.53;;;2.27;;
1164;SDS011;571;50.930;6.926;2023-08-31T14:45:01;2.03;;;1.47;;
1164;SDS011;571;50.930;6.926;2023-08-31T14:47:38;7.13;;;2.33;;
1164;SDS011;571;50.930;6.926;2023-08-31T14:50:35;3.60;;;1.70;;
1164;SDS011;571;50.930;6.926;2023-08-31T14:53:23;3.10;;;1.67;;
1164;SDS011;571;50.930;6.926;2023-08-31T14:56:01;8.23;;;2.33;;
1164;SDS011;571;50.930;6.926;2023-08-31T15:01:37;4.00;;;2.00;;
1164;SDS011;571;50.930;6.926;2023-08-31T15:04:15;5.80;;;2.17;;
1164;SDS011;571;50.930;6.926;2023-08-31T15:06:51;4.93;;;2.40;;
1164;SDS011;571;50.930;6.926;2023-08-31T15:12:56;8.67;;;2.53;;
1164;SDS011;571;50.930;6.926;2023-08-31T15:16:01;5.37;;;1.57;;
1164;SDS011;571;50.930;6.926;2023-08-31T15:18:29;3.30;;;1.83;;
1164;SDS011;571;50.930;6.926;2023-08-31T15:21:08;3.40;;;1.90;;
1164;SDS011;571;50.930;6.926;2023-08-31T15:23:42;5.43;;;2.43;;
1164;SDS011;571;50.930;6.926;2023-08-31T15:26:12;4.87;;;2.17;;
1164;SDS011;571;50.930;6.926;2023-08-31T15:28:42;6.13;;;2.40;;
1164;SDS011;571;50.930;6.926;2023-08-31T15:31:19;5.10;;;2.10;;
1164;SDS011;571;50.930;6.926;2023-08-31T15:33:54;4.47;;;1.90;;
1164;SDS011;571;50.930;6.926;2023-08-31T15:36:29;5.57;;;2.10;;
1164;SDS011;571;50.930;6.926;2023-08-31T15:39:18;2.77;;;1.83;;
1164;SDS011;571;50.930;6.926;2023-08-31T15:41:53;5.83;;;2.30;;
1164;SDS011;571;50.930;6.926;2023-08-31T15:44:24;17.50;;;2.97;;
1164;SDS011;571;50.930;6.926;2023-08-31T15:47:06;3.43;;;1.83;;
1164;SDS011;571;50.930;6.926;2023-08-31T15:49:59;5.40;;;1.83;;
1164;SDS011;571;50.930;6.926;2023-08-31T15:52:26;10.43;;;2.10;;
1164;SDS011;571;50.930;6.926;2023-08-31T15:55:11;5.40;;;2.20;;
1164;SDS011;571;50.930;6.926;2023-08-31T15:57:50;3.00;;;2.00;;
1164;SDS011;571;50.930;6.926;2023-08-31T16:00:26;3.07;;;2.30;;
1164;SDS011;571;50.930;6.926;2023-08-31T16:03:01;13.70;;;2.90;;
1164;SDS011;571;50.930;6.926;2023-08-31T16:05:34;12.00;;;3.40;;
1164;SDS011;571;50.930;6.926;2023-08-31T16:08:01;2.23;;;1.50;;
1164;SDS011;571;50.930;6.926;2023-08-31T16:10:29;4.70;;;2.27;;
1164;SDS011;571;50.930;6.926;2023-08-31T16:12:57;3.27;;;2.30;;
1164;SDS011;571;50.930;6.926;2023-08-31T16:15:30;6.27;;;2.43;;
1164;SDS011;571;50.930;6.926;2023-08-31T16:17:58;2.37;;;1.40;;
1164;SDS011;571;50.930;6.926;2023-08-31T16:23:49;5.67;;;2.10;;
1164;SDS011;571;50.930;6.926;2023-08-31T16:26:41;3.43;;;2.47;;
1164;SDS011;571;50.930;6.926;2023-08-31T16:31:55;4.13;;;2.40;;
1164;SDS011;571;50.930;6.926;2023-08-31T16:39:39;12.93;;;3.10;;
1164;SDS011;571;50.930;6.926;2023-08-31T16:42:44;4.03;;;2.47;;
1164;SDS011;571;50.930;6.926;2023-08-31T17:38:40;6.63;;;2.50;;
1164;SDS011;571;50.930;6.926;2023-08-31T17:41:20;4.60;;;2.90;;
1164;SDS011;571;50.930;6.926;2023-08-31T17:44:16;2.17;;;1.60;;
1164;SDS011;571;50.930;6.926;2023-08-31T17:46:50;4.67;;;2.10;;
1164;SDS011;571;50.930;6.926;2023-08-31T17:49:27;2.90;;;1.90;;
1164;SDS011;571;50.930;6.926;2023-08-31T17:52:09;6.43;;;2.30;;
1164;SDS011;571;50.930;6.926;2023-08-31T17:54:45;6.43;;;2.47;;
1164;SDS011;571;50.930;6.926;2023-08-31T17:57:14;7.43;;;2.80;;
1164;SDS011;571;50.930;6.926;2023-08-31T17:59:47;6.87;;;2.63;;
1164;SDS011;571;50.930;6.926;2023-08-31T18:05:32;3.00;;;2.00;;
1164;SDS011;571;50.930;6.926;2023-08-31T18:08:49;5.57;;;2.47;;
1164;SDS011;571;50.930;6.926;2023-08-31T18:14:24;5.07;;;2.17;;
1164;SDS011;571;50.930;6.926;2023-08-31T18:17:00;5.10;;;2.33;;
1164;SDS011;571;50.930;6.926;2023-08-31T18:19:33;4.53;;;2.30;;
1164;SDS011;571;50.930;6.926;2023-08-31T18:25:30;3.73;;;2.47;;
1164;SDS011;571;50.930;6.926;2023-08-31T18:28:27;9.70;;;2.80;;
1164;SDS011;571;50.930;6.926;2023-08-31T18:31:31;5.40;;;2.93;;
1164;SDS011;571;50.930;6.926;2023-08-31T18:34:11;3.50;;;2.27;;
1164;SDS011;571;50.930;6.926;2023-08-31T18:36:49;8.90;;;3.50;;
1164;SDS011;571;50.930;6.926;2023-08-31T18:39:44;4.33;;;2.83;;
1164;SDS011;571;50.930;6.926;2023-08-31T18:52:45;3.73;;;2.30;;
1164;SDS011;571;50.930;6.926;2023-08-31T18:55:39;9.13;;;2.80;;
1164;SDS011;571;50.930;6.926;2023-08-31T18:58:14;5.43;;;2.40;;
1164;SDS011;571;50.930;6.926;2023-08-31T19:00:48;4.37;;;2.60;;
1164;SDS011;571;50.930;6.926;2023-08-31T19:03:52;3.63;;;2.40;;
1164;SDS011;571;50.930;6.926;2023-08-31T19:06:31;7.97;;;3.77;;
1164;SDS011;571;50.930;6.926;2023-08-31T19:09:06;3.30;;;2.97;;
1164;SDS011;571;50.930;6.926;2023-08-31T19:11:40;6.10;;;3.37;;
1164;SDS011;571;50.930;6.926;2023-08-31T19:14:24;3.83;;;2.93;;
1164;SDS011;571;50.930;6.926;2023-08-31T19:17:06;4.03;;;2.57;;
1164;SDS011;571;50.930;6.926;2023-08-31T19:22:50;4.90;;;3.00;;
1164;SDS011;571;50.930;6.926;2023-08-31T19:25:24;6.07;;;2.57;;
1164;SDS011;571;50.930;6.926;2023-08-31T19:28:29;5.43;;;3.30;;
1164;SDS011;571;50.930;6.926;2023-08-31T19:31:17;5.57;;;2.77;;
1164;SDS011;571;50.930;6.926;2023-08-31T19:37:14;7.30;;;3.00;;
1164;SDS011;571;50.930;6.926;2023-08-31T19:39:44;9.13;;;3.30;;
1164;SDS011;571;50.930;6.926;2023-08-31T19:45:51;8.90;;;3.60;;
1164;SDS011;571;50.930;6.926;2023-08-31T19:48:33;6.70;;;2.67;;
1164;SDS011;571;50.930;6.926;2023-08-31T19:51:08;5.57;;;2.80;;
1164;SDS011;571;50.930;6.926;2023-08-31T19:53:41;3.57;;;2.50;;
1164;SDS011;571;50.930;6.926;2023-08-31T19:56:29;3.40;;;2.80;;
1164;SDS011;571;50.930;6.926;2023-08-31T19:59:02;4.47;;;2.53;;
1164;SDS011;571;50.930;6.926;2023-08-31T20:01:35;4.90;;;2.80;;
1164;SDS011;571;50.930;6.926;2023-08-31T20:04:28;8.00;;;2.67;;
1164;SDS011;571;50.930;6.926;2023-08-31T20:06:56;6.23;;;3.73;;
1164;SDS011;571;50.930;6.926;2023-08-31T20:09:31;5.80;;;2.60;;
1164;SDS011;571;50.930;6.926;2023-08-31T20:12:02;3.20;;;2.60;;
1164;SDS011;571;50.930;6.926;2023-08-31T20:17:47;7.70;;;2.70;;
1164;SDS011;571;50.930;6.926;2023-08-31T20:20:45;6.37;;;3.50;;
1164;SDS011;571;50.930;6.926;2023-08-31T20:23:19;5.60;;;2.53;;